Time;durP1;ratioP1;P1;durP2;ratioP2;P2;SDS_P1;SDS_P2;PMS_P1;PMS_P2;Temp;Humidity;BMP_temperature;BMP_pressure;BME280_temperature;BME280_humidity;BME280_pressure;Samples;Min_cycle;Max_cycle;Signal;HPM_P1;HPM_P2
2022/01/29 00:02:09;;;;;;;3.88;3.58;;;;;;;3.08;50.61;95368.25;5077087;28;20185;-63
2022/01/29 00:04:36;;;;;;;4.20;3.58;;;;;;;3.10;50.49;95379.69;5075984;28;20200;-63
2022/01/29 00:07:03;;;;;;;4.00;3.70;;;;;;;3.11;50.83;95376.63;5076943;28;20229;-63
2022/01/29 00:09:29;;;;;;;4.43;4.03;;;;;;;3.10;51.19;95375.03;5076010;28;20200;-63
2022/01/29 00:11:56;;;;;;;4.57;3.88;;;;;;;3.14;51.09;95384.22;5076507;28;20185;-63
2022/01/29 00:14:23;;;;;;;4.65;4.18;;;;;;;3.11;50.94;95384.81;5076615;28;20211;-63
2022/01/29 00:16:50;;;;;;;4.50;4.10;;;;;;;3.13;51.01;95387.25;5076785;28;20189;-62
2022/01/29 00:19:18;;;;;;;4.35;3.95;;;;;;;3.09;51.13;95378.88;5076612;28;20189;-62
2022/01/29 00:21:45;;;;;;;4.03;3.72;;;;;;;3.09;51.10;95381.59;5075348;28;20201;-62
2022/01/29 00:24:12;;;;;;;4.50;4.10;;;;;;;3.05;51.57;95383.31;5076078;28;20208;-62
2022/01/29 00:26:38;;;;;;;3.87;3.57;;;;;;;3.05;51.39;95393.38;5076647;28;20196;-62
2022/01/29 00:29:15;;;;;;;4.17;3.80;;;;;;;3.02;51.55;95386.63;5074550;28;20195;-62
2022/01/29 00:31:41;;;;;;;4.25;3.85;;;;;;;3.00;51.71;95390.75;5076105;28;20181;-62
2022/01/29 00:34:08;;;;;;;4.10;3.80;;;;;;;2.98;52.04;95391.03;5075399;28;20197;-64
2022/01/29 00:36:36;;;;;;;4.72;4.32;;;;;;;2.99;51.88;95394.56;5076019;28;20227;-63
2022/01/29 00:39:03;;;;;;;4.47;4.07;;;;;;;2.97;52.14;95386.69;5075412;28;20207;-63
2022/01/29 00:41:30;;;;;;;4.25;3.95;;;;;;;2.96;52.60;95381.53;5075411;28;20200;-63
2022/01/29 00:43:57;;;;;;;4.75;4.35;;;;;;;2.96;52.78;95387.78;5075266;28;20204;-63
2022/01/29 00:46:24;;;;;;;5.10;4.60;;;;;;;2.96;53.28;95378.81;5076352;28;20177;-63
2022/01/29 00:48:51;;;;;;;5.25;4.78;;;;;;;2.99;53.18;95383.69;5075670;28;20237;-63
2022/01/29 00:51:17;;;;;;;4.90;4.50;;;;;;;2.99;53.38;95378.22;5076092;28;20193;-62
2022/01/29 00:53:46;;;;;;;5.15;4.60;;;;;;;2.98;53.60;95371.97;5075487;28;20196;-62
2022/01/29 00:56:12;;;;;;;5.22;4.82;;;;;;;2.98;53.72;95379.31;5075330;28;20221;-62
2022/01/29 00:58:40;;;;;;;5.00;4.60;;;;;;;2.96;53.90;95373.38;5075836;28;20185;-62
2022/01/29 01:01:07;;;;;;;5.10;4.70;;;;;;;2.94;54.00;95378.28;5075803;28;20190;-62
2022/01/29 01:03:34;;;;;;;5.28;4.82;;;;;;;2.93;54.26;95379.41;5074905;28;20205;-62
2022/01/29 01:06:01;;;;;;;5.18;4.68;;;;;;;2.93;54.15;95377.47;5075670;28;20185;-62
2022/01/29 01:08:28;;;;;;;4.55;4.15;;;;;;;2.94;53.95;95378.28;5075792;28;20181;-62
2022/01/29 01:10:56;;;;;;;4.75;4.35;;;;;;;2.93;54.08;95380.22;5075831;28;20196;-62
2022/01/29 01:13:23;;;;;;;4.75;4.35;;;;;;;2.93;54.54;95382.13;5075493;28;20200;-62
2022/01/29 01:15:50;;;;;;;5.18;4.78;;;;;;;2.93;54.33;95380.22;5075488;28;20217;-62
2022/01/29 01:18:17;;;;;;;5.20;4.80;;;;;;;2.94;54.35;95370.94;5075294;28;20196;-62
2022/01/29 01:20:43;;;;;;;5.43;4.93;;;;;;;2.94;54.19;95378.28;5075606;28;20185;-62
2022/01/29 01:23:10;;;;;;;5.40;4.72;;;;;;;2.93;54.57;95371.22;5074514;28;20613;-62
2022/01/29 01:25:37;;;;;;;5.65;5.15;;;;;;;2.94;54.55;95361.94;5074298;28;20201;-62
2022/01/29 01:28:05;;;;;;;5.28;4.88;;;;;;;2.93;54.73;95369.31;5074562;28;20197;-63
2022/01/29 01:30:32;;;;;;;5.05;4.65;;;;;;;2.93;54.76;95352.97;5075665;28;20195;-63
2022/01/29 01:33:00;;;;;;;5.85;5.35;;;;;;;2.91;54.53;95359.84;5075104;28;20663;-63
2022/01/29 01:35:32;;;;;;;5.80;5.18;;;;;;;2.88;54.92;95363.94;5074529;28;20312;-63
2022/01/29 01:38:07;;;;;;;5.25;4.75;;;;;;;2.89;55.08;95376.47;5074579;28;20228;-62
2022/01/29 01:40:35;;;;;;;6.55;5.10;;;;;;;2.85;54.99;95368.06;5074980;28;20195;-62
2022/01/29 01:43:01;;;;;;;5.72;5.22;;;;;;;2.84;55.09;95363.75;5075153;28;20250;-62
2022/01/29 01:45:30;;;;;;;5.57;5.07;;;;;;;2.86;55.23;95357.97;5075222;28;20184;-62
2022/01/29 01:47:57;;;;;;;5.78;5.30;;;;;;;2.84;55.25;95363.75;5073632;28;20241;-62
2022/01/29 01:50:25;;;;;;;5.65;5.10;;;;;;;2.84;55.21;95357.47;5075395;28;20188;-62
2022/01/29 01:52:52;;;;;;;5.07;4.68;;;;;;;2.85;55.40;95359.91;5075327;28;20203;-62
2022/01/29 01:55:19;;;;;;;6.18;5.60;;;;;;;2.83;55.51;95358.56;5074212;28;20224;-62
2022/01/29 01:57:46;;;;;;;5.53;5.03;;;;;;;2.81;55.54;95364.31;5074270;28;20208;-63
2022/01/29 02:00:13;;;;;;;5.25;4.82;;;;;;;2.80;55.50;95367.38;5074281;28;20211;-62
2022/01/29 02:02:41;;;;;;;5.00;4.60;;;;;;;2.79;55.76;95363.00;5074436;28;20207;-62
2022/01/29 02:05:09;;;;;;;5.18;4.78;;;;;;;2.77;55.95;95359.78;5074405;28;20212;-62
2022/01/29 02:07:37;;;;;;;5.65;5.15;;;;;;;2.74;55.94;95365.81;5074228;28;20197;-62
2022/01/29 02:10:07;;;;;;;5.45;4.95;;;;;;;2.78;55.97;95367.63;5075071;28;20189;-63
2022/01/29 02:12:45;;;;;;;5.53;5.10;;;;;;;2.78;55.98;95364.91;5075082;28;20197;-63
2022/01/29 02:15:12;;;;;;;5.70;5.30;;;;;;;2.78;55.94;95367.63;5074967;28;20185;-63
2022/01/29 02:17:39;;;;;;;5.47;4.97;;;;;;;2.76;56.25;95367.16;5074902;28;20276;-64
2022/01/29 02:20:08;;;;;;;5.72;5.22;;;;;;;2.77;56.14;95366.03;5074935;28;20279;-63
2022/01/29 02:22:39;;;;;;;5.35;4.82;;;;;;;2.73;56.18;95364.19;5074578;28;20544;-63
2022/01/29 02:25:06;;;;;;;5.88;5.38;;;;;;;2.73;56.34;95369.66;5073902;28;20197;-63
2022/01/29 02:27:33;;;;;;;5.30;4.90;;;;;;;2.75;56.51;95370.16;5074943;28;20302;-63
2022/01/29 02:30:00;;;;;;;5.85;5.35;;;;;;;2.73;56.72;95377.81;5073774;28;20215;-63
2022/01/29 02:32:27;;;;;;;5.40;5.00;;;;;;;2.70;56.58;95376.47;5074922;28;20203;-63
2022/01/29 02:34:53;;;;;;;5.30;4.88;;;;;;;2.68;56.54;95369.72;5073948;28;20201;-63
2022/01/29 02:37:20;;;;;;;5.05;4.57;;;;;;;2.67;56.74;95374.34;5074071;28;20209;-63
2022/01/29 02:39:48;;;;;;;4.85;4.45;;;;;;;2.65;56.53;95374.66;5074667;28;20189;-63
2022/01/29 02:42:15;;;;;;;4.97;4.57;;;;;;;2.70;56.54;95372.97;5074365;28;20186;-63
2022/01/29 02:44:42;;;;;;;5.18;4.78;;;;;;;2.70;56.94;95376.47;5074794;28;20192;-63
2022/01/29 02:47:26;;;;;;;4.80;4.40;;;;;;;2.69;56.75;95379.50;5074026;28;20193;-63
2022/01/29 02:49:53;;;;;;;4.88;4.47;;;;;;;2.71;56.61;95380.81;5074245;28;20195;-63
2022/01/29 02:52:20;;;;;;;5.28;4.88;;;;;;;2.72;56.64;95382.44;5075741;28;20208;-63
2022/01/29 02:54:48;;;;;;;5.43;5.03;;;;;;;2.74;56.58;95382.16;5077006;28;20197;-63
2022/01/29 02:57:15;;;;;;;4.78;4.47;;;;;;;2.72;56.66;95376.97;5077151;28;20221;-63
2022/01/29 02:59:42;;;;;;;5.57;5.13;;;;;;;2.67;56.81;95385.25;5077323;28;20211;-63
2022/01/29 03:02:09;;;;;;;5.00;4.60;;;;;;;2.64;56.67;95388.56;5077243;28;20189;-63
2022/01/29 03:04:36;;;;;;;4.70;4.30;;;;;;;2.67;56.80;95384.44;5076974;28;20207;-63
2022/01/29 03:07:03;;;;;;;5.25;4.43;;;;;;;2.69;56.53;95390.38;5078008;28;20193;-63
2022/01/29 03:09:29;;;;;;;5.05;4.65;;;;;;;2.68;56.50;95386.84;5078083;28;20185;-63
2022/01/29 03:11:58;;;;;;;4.65;4.25;;;;;;;2.67;56.34;95387.97;5077009;28;20201;-63
2022/01/29 03:14:25;;;;;;;5.40;5.00;;;;;;;2.70;56.10;95381.94;5077144;28;20208;-64
2022/01/29 03:16:52;;;;;;;4.70;4.38;;;;;;;2.71;55.98;95383.53;5077288;28;20305;-63
2022/01/29 03:19:19;;;;;;;5.10;4.68;;;;;;;2.74;55.99;95388.41;5077740;28;20204;-63
2022/01/29 03:21:46;;;;;;;4.43;4.13;;;;;;;2.73;55.78;95384.06;5077061;28;20208;-63
2022/01/29 03:24:12;;;;;;;4.97;4.57;;;;;;;2.72;55.77;95387.06;5077477;28;20219;-63
2022/01/29 03:26:39;;;;;;;4.63;4.22;;;;;;;2.71;55.92;95393.63;5077861;28;20193;-63
2022/01/29 03:29:07;;;;;;;4.80;4.40;;;;;;;2.64;55.57;95383.91;5077713;28;20189;-63
2022/01/29 03:31:34;;;;;;;4.90;4.50;;;;;;;2.69;55.54;95393.94;5076732;28;20205;-63
2022/01/29 03:34:01;;;;;;;4.57;4.20;;;;;;;2.71;55.76;95391.72;5076535;28;20197;-63
2022/01/29 03:36:28;;;;;;;4.40;4.00;;;;;;;2.71;55.19;95393.63;5077143;28;20205;-63
2022/01/29 03:38:55;;;;;;;4.18;3.88;;;;;;;2.69;54.89;95393.09;5077473;28;20193;-63
2022/01/29 03:41:21;;;;;;;4.05;3.75;;;;;;;2.72;54.98;95393.31;5077389;28;20211;-63
2022/01/29 03:43:51;;;;;;;4.30;4.00;;;;;;;2.75;54.71;95383.75;5077312;28;20295;-63
2022/01/29 03:46:19;;;;;;;4.00;3.70;;;;;;;2.76;54.88;95388.09;5076421;28;20601;-63
2022/01/29 03:48:46;;;;;;;4.55;4.15;;;;;;;2.74;54.87;95382.97;5076918;28;20233;-63
2022/01/29 03:51:13;;;;;;;4.60;4.30;;;;;;;2.72;54.84;95393.31;5076553;28;20201;-63
2022/01/29 03:53:40;;;;;;;4.40;4.00;;;;;;;2.70;55.06;95392.81;5076300;28;20208;-63
2022/01/29 03:56:06;;;;;;;4.47;4.13;;;;;;;2.68;54.83;95394.22;5076290;28;20217;-63
2022/01/29 03:58:33;;;;;;;4.60;4.30;;;;;;;2.67;55.05;95395.34;5077025;28;20283;-63
2022/01/29 04:01:00;;;;;;;4.15;3.75;;;;;;;2.64;55.31;95380.38;5077057;28;20184;-63
2022/01/29 04:03:28;;;;;;;4.68;4.28;;;;;;;2.64;55.49;95383.09;5076799;28;20196;-63
2022/01/29 04:05:55;;;;;;;4.53;4.13;;;;;;;2.64;55.50;95386.63;5076566;28;20204;-63
2022/01/29 04:08:23;;;;;;;4.28;3.97;;;;;;;2.62;55.60;95377.97;5076696;28;20189;-63
2022/01/29 04:10:51;;;;;;;4.00;3.70;;;;;;;2.57;55.63;95385.38;5076840;28;20197;-63
2022/01/29 04:13:22;;;;;;;4.60;4.20;;;;;;;2.55;55.87;95385.69;5076733;28;20185;-63
2022/01/29 04:15:49;;;;;;;4.18;3.88;;;;;;;2.54;55.64;95381.34;5076446;28;20211;-63
2022/01/29 04:18:16;;;;;;;4.90;4.50;;;;;;;2.56;55.70;95372.88;5075865;28;20197;-64
2022/01/29 04:20:44;;;;;;;4.35;4.05;;;;;;;2.53;55.95;95373.47;5075953;28;20200;-64
2022/01/29 04:23:11;;;;;;;4.30;4.00;;;;;;;2.54;55.99;95375.91;5075983;28;20273;-64
2022/01/29 04:25:38;;;;;;;4.80;4.40;;;;;;;2.53;56.02;95379.72;5076690;28;20177;-64
2022/01/29 04:28:06;;;;;;;4.30;4.00;;;;;;;2.53;55.85;95371.56;5076506;28;20177;-64
2022/01/29 04:30:42;;;;;;;4.20;3.80;;;;;;;2.56;55.84;95375.59;5076245;28;20272;-64
2022/01/29 04:33:27;;;;;;;3.83;3.53;;;;;;;2.53;55.46;95385.16;5076104;28;20514;-64
2022/01/29 04:35:57;;;;;;;3.60;3.30;;;;;;;2.54;55.26;95385.97;5076272;28;20192;-64
2022/01/29 04:38:24;;;;;;;3.80;3.50;;;;;;;2.53;55.04;95384.34;5075408;28;20663;-64
2022/01/29 04:40:51;;;;;;;3.88;3.60;;;;;;;2.50;55.25;95382.22;5076012;28;20227;-64
2022/01/29 04:43:18;;;;;;;3.72;3.42;;;;;;;2.47;55.31;95380.06;5075279;28;20201;-63
2022/01/29 04:45:44;;;;;;;3.80;3.60;;;;;;;2.44;55.45;95386.94;5075819;28;20195;-63
2022/01/29 04:48:11;;;;;;;3.80;3.50;;;;;;;2.44;55.55;95383.41;5076128;28;20245;-63
2022/01/29 04:50:38;;;;;;;3.80;3.50;;;;;;;2.44;55.54;95384.22;5076383;28;20186;-63
2022/01/29 04:53:07;;;;;;;4.13;3.83;;;;;;;2.44;55.95;95389.66;5076132;28;20185;-63
2022/01/29 04:55:34;;;;;;;3.72;3.40;;;;;;;2.42;55.90;95392.66;5075065;28;20636;-64
2022/01/29 04:58:01;;;;;;;3.92;3.63;;;;;;;2.45;55.96;95394.00;5075625;28;20216;-63
2022/01/29 05:00:28;;;;;;;3.97;3.67;;;;;;;2.42;55.94;95400.03;5075114;28;20643;-63
2022/01/29 05:02:56;;;;;;;4.88;4.07;;;;;;;2.43;55.92;95396.19;5075045;28;20185;-63
2022/01/29 05:05:23;;;;;;;4.53;4.20;;;;;;;2.48;55.98;95396.13;5075453;28;20606;-63
2022/01/29 05:07:50;;;;;;;4.13;3.80;;;;;;;2.46;56.16;95406.50;5075694;28;20220;-63
2022/01/29 05:10:21;;;;;;;4.45;4.10;;;;;;;2.48;56.10;95409.75;5075298;28;20204;-63
2022/01/29 05:12:53;;;;;;;4.78;4.25;;;;;;;2.51;56.29;95405.66;5075893;28;20283;-63
2022/01/29 05:15:26;;;;;;;3.95;3.65;;;;;;;2.51;55.92;95405.66;5074107;28;20685;-63
2022/01/29 05:28:51;;;;;;;4.38;4.07;;;;;;;2.54;56.88;95410.47;5074749;28;20188;-63
2022/01/29 05:31:18;;;;;;;4.35;4.05;;;;;;;2.52;56.91;95407.25;5074581;28;20216;-63
2022/01/29 05:33:45;;;;;;;4.15;3.85;;;;;;;2.53;56.83;95404.22;5075334;28;20197;-63
2022/01/29 05:36:11;;;;;;;4.57;4.18;;;;;;;2.46;57.27;95405.69;5075502;28;20200;-64
2022/01/29 05:38:38;;;;;;;5.00;4.60;;;;;;;2.44;57.15;95413.38;5075088;28;20182;-63
2022/01/29 05:41:07;;;;;;;4.60;4.30;;;;;;;2.44;57.42;95421.53;5075564;28;20189;-64
2022/01/29 05:43:34;;;;;;;4.63;4.25;;;;;;;2.44;57.70;95422.34;5074875;28;20539;-63
2022/01/29 05:46:00;;;;;;;4.50;4.20;;;;;;;2.45;57.41;95423.94;5074263;28;20219;-62
2022/01/29 05:48:27;;;;;;;4.30;4.00;;;;;;;2.43;57.62;95434.31;5075227;28;20248;-62
2022/01/29 05:50:55;;;;;;;5.15;4.75;;;;;;;2.42;57.70;95428.06;5074922;28;20189;-62
2022/01/29 05:53:22;;;;;;;4.72;4.40;;;;;;;2.43;57.72;95439.75;5074472;28;20193;-62
2022/01/29 05:55:49;;;;;;;4.50;4.20;;;;;;;2.46;57.88;95443.81;5074183;28;20651;-62
2022/01/29 05:58:17;;;;;;;5.03;4.68;;;;;;;2.46;57.81;95438.38;5075027;28;20216;-62
2022/01/29 06:00:44;;;;;;;5.20;4.80;;;;;;;2.42;58.00;95457.19;5074842;28;20185;-62
2022/01/29 06:03:11;;;;;;;6.20;5.70;;;;;;;2.41;58.20;95448.22;5073902;28;20193;-63
2022/01/29 06:05:38;;;;;;;6.38;5.88;;;;;;;2.41;58.29;95448.22;5075257;28;20196;-63
2022/01/29 06:08:05;;;;;;;5.90;5.43;;;;;;;2.43;58.24;95447.91;5074062;28;20203;-62
2022/01/29 06:10:33;;;;;;;5.57;5.07;;;;;;;2.44;58.31;95454.19;5074410;28;20201;-62
2022/01/29 06:13:04;;;;;;;5.97;5.47;;;;;;;2.43;58.42;95456.09;5074592;28;20610;-62
2022/01/29 06:15:38;;;;;;;5.43;5.03;;;;;;;2.44;58.43;95452.28;5074174;28;20197;-62
2022/01/29 06:18:05;;;;;;;5.65;5.25;;;;;;;2.44;58.10;95465.09;5074799;28;20232;-62
2022/01/29 06:20:32;;;;;;;5.15;4.78;;;;;;;2.44;58.25;95459.66;5075017;28;20193;-62
2022/01/29 06:22:59;;;;;;;5.43;5.03;;;;;;;2.45;58.18;95461.25;5074953;28;20181;-62
2022/01/29 06:25:26;;;;;;;5.43;5.00;;;;;;;2.45;58.04;95463.97;5074911;28;20186;-62
2022/01/29 06:27:53;;;;;;;6.20;5.70;;;;;;;2.42;58.10;95458.00;5078714;28;20178;-62
2022/01/29 06:30:19;;;;;;;5.95;5.45;;;;;;;2.46;58.16;95463.69;5078928;28;20186;-63
2022/01/29 06:32:48;;;;;;;5.55;5.13;;;;;;;2.46;58.10;95455.50;5078693;28;20189;-62
2022/01/29 06:35:15;;;;;;;5.30;4.90;;;;;;;2.48;58.17;95456.03;5077859;28;20197;-63
2022/01/29 06:37:41;;;;;;;5.18;4.78;;;;;;;2.52;57.90;95459.00;5077595;28;20209;-64
2022/01/29 06:40:09;;;;;;;4.93;4.60;;;;;;;2.56;57.59;95458.09;5077527;28;20209;-66
2022/01/29 06:42:36;;;;;;;5.38;4.53;;;;;;;2.58;57.73;95463.28;5077730;28;20200;-65
2022/01/29 06:45:04;;;;;;;5.35;4.88;;;;;;;2.51;57.99;95469.06;5078466;28;20186;-64
2022/01/29 06:47:30;;;;;;;5.72;5.25;;;;;;;2.50;57.84;95470.16;5077943;28;20427;-65
2022/01/29 06:49:59;;;;;;;5.00;4.60;;;;;;;2.53;57.97;95468.78;5077995;28;20186;-66
2022/01/29 06:52:25;;;;;;;5.57;5.07;;;;;;;2.57;57.93;95473.34;5078496;28;20185;-66
2022/01/29 06:54:52;;;;;;;4.70;4.30;;;;;;;2.69;57.60;95478.38;5078391;28;20189;-65
2022/01/29 06:57:19;;;;;;;5.18;4.78;;;;;;;2.71;57.52;95488.97;5077741;28;20209;-64
2022/01/29 06:59:46;;;;;;;5.13;4.80;;;;;;;2.71;57.57;95487.03;5077254;28;20193;-66
2022/01/29 07:02:12;;;;;;;5.20;4.80;;;;;;;2.70;57.59;95490.88;5077919;28;20208;-63
2022/01/29 07:04:39;;;;;;;5.57;5.18;;;;;;;2.70;57.76;95488.16;5076814;28;20609;-63
2022/01/29 07:07:07;;;;;;;5.32;4.93;;;;;;;2.73;57.79;95494.94;5078097;28;20191;-63
2022/01/29 07:09:34;;;;;;;5.65;5.15;;;;;;;2.76;57.67;95495.16;5078119;28;20181;-63
2022/01/29 07:12:08;;;;;;;5.25;4.85;;;;;;;2.78;57.49;95486.69;5078192;28;20193;-63
2022/01/29 07:14:38;;;;;;;5.13;4.72;;;;;;;2.77;57.77;95487.81;5077540;28;20219;-63
2022/01/29 07:17:08;;;;;;;5.40;5.00;;;;;;;2.70;57.71;95500.97;5076594;28;20213;-63
2022/01/29 07:19:35;;;;;;;5.72;5.22;;;;;;;2.62;57.83;95499.72;5077831;28;20442;-63
2022/01/29 07:22:02;;;;;;;6.95;6.25;;;;;;;2.63;58.14;95495.88;5077532;28;20512;-65
2022/01/29 07:24:31;;;;;;;6.25;5.75;;;;;;;2.64;58.12;95497.50;5077947;28;20200;-64
2022/01/29 07:26:58;;;;;;;6.13;5.63;;;;;;;2.68;58.10;95495.81;5077835;28;20201;-64
2022/01/29 07:29:25;;;;;;;6.25;5.65;;;;;;;2.67;58.09;95491.47;5077469;28;20185;-67
2022/01/29 07:31:51;;;;;;;6.07;5.57;;;;;;;2.64;57.82;95498.28;5077319;28;20186;-65
2022/01/29 07:34:18;;;;;;;6.05;5.55;;;;;;;2.62;58.08;95502.44;5077592;28;20342;-65
2022/01/29 07:36:45;;;;;;;6.43;5.93;;;;;;;2.62;58.33;95505.97;5077285;28;20185;-65
2022/01/29 07:39:12;;;;;;;6.18;5.68;;;;;;;2.62;58.31;95507.88;5076841;28;20196;-66
2022/01/29 07:41:40;;;;;;;5.10;4.60;;;;;;;2.60;58.32;95513.59;5077522;28;20189;-66
2022/01/29 07:44:07;;;;;;;5.72;5.22;;;;;;;2.59;58.52;95522.06;5077432;28;20189;-67
2022/01/29 07:46:34;;;;;;;4.65;4.25;;;;;;;2.59;58.17;95522.06;5076652;28;20610;-65
2022/01/29 07:49:01;;;;;;;5.60;5.10;;;;;;;2.63;58.15;95517.66;5077266;28;20229;-66
2022/01/29 07:51:27;;;;;;;6.70;6.10;;;;;;;2.66;58.25;95527.97;5076435;28;20201;-66
2022/01/29 07:53:54;;;;;;;5.43;4.93;;;;;;;2.66;58.09;95525.25;5076266;28;20203;-66
2022/01/29 07:56:21;;;;;;;5.15;4.75;;;;;;;2.68;57.93;95531.22;5077165;28;20199;-66
2022/01/29 07:58:49;;;;;;;4.90;4.50;;;;;;;2.68;57.78;95530.41;5077288;28;20234;-66
2022/01/29 08:01:16;;;;;;;5.90;5.40;;;;;;;2.64;58.10;95530.97;5077141;28;20208;-66
2022/01/29 08:03:46;;;;;;;5.38;4.88;;;;;;;2.62;58.10;95537.84;5076446;28;20192;-67
2022/01/29 08:06:13;;;;;;;4.85;4.45;;;;;;;2.63;58.27;95536.72;5076865;28;20267;-66
2022/01/29 08:08:40;;;;;;;5.45;4.93;;;;;;;2.62;58.39;95543.28;5075866;28;20619;-67
2022/01/29 08:11:07;;;;;;;5.80;5.30;;;;;;;2.67;58.61;95540.50;5076607;28;20633;-66
2022/01/29 08:13:34;;;;;;;6.18;5.68;;;;;;;2.73;58.38;95544.78;5075585;28;20622;-66
2022/01/29 08:16:02;;;;;;;5.72;5.30;;;;;;;2.76;58.42;95540.63;5076357;28;20187;-66
2022/01/29 08:18:29;;;;;;;5.70;5.20;;;;;;;2.74;58.64;95545.59;5076322;28;20224;-66
2022/01/29 08:20:56;;;;;;;5.82;5.32;;;;;;;2.74;58.74;95543.66;5076312;28;20193;-66
2022/01/29 08:23:23;;;;;;;5.55;5.15;;;;;;;2.80;58.43;95553.41;5075826;28;20197;-67
2022/01/29 08:25:50;;;;;;;5.10;4.70;;;;;;;2.85;58.29;95542.44;5076207;28;20185;-66
2022/01/29 08:28:17;;;;;;;5.50;5.10;;;;;;;2.85;58.44;95539.72;5075882;28;20196;-66
2022/01/29 08:30:44;;;;;;;5.50;5.03;;;;;;;2.90;58.36;95544.28;5076080;28;20219;-66
2022/01/29 08:33:17;;;;;;;5.60;5.10;;;;;;;2.83;58.57;95549.28;5076375;28;20246;-66
2022/01/29 08:35:44;;;;;;;5.78;5.18;;;;;;;2.91;58.52;95551.38;5075369;28;20212;-66
2022/01/29 08:38:10;;;;;;;5.68;5.18;;;;;;;2.96;58.67;95548.56;5076651;28;20205;-66
2022/01/29 08:40:37;;;;;;;5.70;5.30;;;;;;;3.02;58.27;95563.75;5075905;28;20211;-66
2022/01/29 08:43:04;;;;;;;5.28;4.88;;;;;;;3.04;58.28;95558.00;5075074;28;20207;-66
2022/01/29 08:45:31;;;;;;;5.20;4.80;;;;;;;3.08;58.48;95559.84;5076188;28;20204;-67
2022/01/29 08:47:58;;;;;;;5.60;5.10;;;;;;;3.24;58.11;95559.66;5074959;28;20233;-66
2022/01/29 08:50:26;;;;;;;5.10;4.70;;;;;;;3.33;58.50;95553.22;5075359;28;20186;-66
2022/01/29 08:52:53;;;;;;;5.70;5.18;;;;;;;3.41;57.86;95553.66;5075729;28;20185;-66
2022/01/29 08:55:20;;;;;;;5.80;5.40;;;;;;;3.46;57.75;95559.84;5075030;28;20201;-66
2022/01/29 08:57:46;;;;;;;5.97;5.38;;;;;;;3.54;57.39;95555.66;5075757;28;20223;-66
2022/01/29 09:00:15;;;;;;;5.32;4.93;;;;;;;3.53;57.25;95560.28;5075890;28;20182;-66
2022/01/29 09:02:41;;;;;;;5.53;5.03;;;;;;;3.53;56.65;95557.56;5075904;28;20185;-67
2022/01/29 09:05:09;;;;;;;5.85;5.35;;;;;;;3.61;57.14;95567.81;5075792;28;20185;-66
2022/01/29 09:07:38;;;;;;;5.55;5.05;;;;;;;3.68;57.46;95561.16;5074859;28;20197;-67
2022/01/29 09:10:06;;;;;;;5.50;5.10;;;;;;;3.74;57.02;95568.97;5075784;28;20189;-66
2022/01/29 09:12:33;;;;;;;4.32;4.03;;;;;;;3.71;56.76;95571.50;5075947;28;20208;-67
2022/01/29 09:14:59;;;;;;;4.22;3.90;;;;;;;3.72;56.56;95571.19;5075253;28;20665;-66
2022/01/29 09:17:26;;;;;;;4.65;4.25;;;;;;;3.74;56.65;95574.44;5074384;28;20200;-67
2022/01/29 09:19:53;;;;;;;4.50;4.20;;;;;;;3.68;56.54;95577.53;5074652;28;20192;-66
2022/01/29 09:22:20;;;;;;;5.03;4.63;;;;;;;3.67;56.92;95563.09;5075339;28;20200;-66
2022/01/29 09:24:48;;;;;;;5.03;4.63;;;;;;;3.68;57.20;95570.16;5074818;28;20201;-66
2022/01/29 09:27:15;;;;;;;5.55;5.15;;;;;;;3.74;57.30;95566.25;5074425;28;20632;-66
2022/01/29 09:29:42;;;;;;;5.45;5.05;;;;;;;3.80;57.53;95565.03;5074539;28;20189;-67
2022/01/29 09:32:09;;;;;;;5.70;5.20;;;;;;;3.88;56.59;95565.47;5075387;28;20272;-66
2022/01/29 09:34:36;;;;;;;6.20;5.70;;;;;;;3.86;57.09;95557.59;5075364;28;20189;-66
2022/01/29 09:37:03;;;;;;;6.15;5.65;;;;;;;3.88;56.85;95554.56;5075483;28;20205;-66
2022/01/29 09:39:30;;;;;;;6.60;6.10;;;;;;;3.85;57.24;95559.53;5074361;28;20217;-67
2022/01/29 09:41:58;;;;;;;6.38;5.88;;;;;;;3.77;57.31;95564.81;5074908;28;20186;-66
2022/01/29 09:44:25;;;;;;;6.15;5.65;;;;;;;3.79;57.35;95565.34;5075294;28;20186;-66
2022/01/29 09:46:52;;;;;;;5.40;5.00;;;;;;;3.80;56.91;95558.78;5074877;28;20195;-67
2022/01/29 09:49:20;;;;;;;5.40;4.90;;;;;;;3.87;56.88;95561.94;5074732;28;20236;-67
2022/01/29 09:51:47;;;;;;;4.75;4.35;;;;;;;3.91;56.09;95564.88;5074805;28;20204;-67
2022/01/29 09:54:14;;;;;;;4.57;4.28;;;;;;;3.85;56.46;95561.44;5074851;28;20212;-67
2022/01/29 09:56:40;;;;;;;5.20;4.80;;;;;;;3.96;56.18;95556.59;5074403;28;20208;-66
2022/01/29 09:59:09;;;;;;;5.13;4.72;;;;;;;4.05;55.42;95552.88;5075058;28;20219;-67
2022/01/29 10:01:36;;;;;;;5.07;4.68;;;;;;;4.17;54.91;95555.13;5074047;28;20211;-66
2022/01/29 10:04:04;;;;;;;5.13;4.72;;;;;;;4.17;54.61;95554.31;5074492;28;20200;-66
2022/01/29 10:06:31;;;;;;;5.50;5.10;;;;;;;4.21;55.29;95550.72;5075033;28;20189;-66
2022/01/29 10:08:59;;;;;;;6.20;5.75;;;;;;;4.22;55.07;95552.34;5074193;28;20200;-66
2022/01/29 10:11:27;;;;;;;5.25;4.78;;;;;;;4.20;55.21;95565.47;5074804;28;20216;-67
2022/01/29 10:13:59;;;;;;;5.32;4.93;;;;;;;4.15;55.30;95565.56;5074657;28;20177;-66
2022/01/29 10:16:29;;;;;;;4.63;4.22;;;;;;;4.03;54.91;95563.31;5075133;28;20193;-67
2022/01/29 10:19:00;;;;;;;4.63;4.22;;;;;;;3.74;56.18;95566.25;5074630;28;20663;-66
2022/01/29 10:21:29;;;;;;;5.10;4.70;;;;;;;3.59;56.63;95566.47;5074008;28;20197;-66
2022/01/29 10:24:05;;;;;;;5.20;4.80;;;;;;;3.49;56.95;95555.75;5074580;28;20190;-66
2022/01/29 10:26:34;;;;;;;5.53;5.13;;;;;;;3.58;57.28;95560.22;5073924;28;20193;-66
2022/01/29 10:29:02;;;;;;;5.70;5.30;;;;;;;3.71;56.74;95561.38;5074783;28;20197;-67
2022/01/29 10:31:45;;;;;;;4.60;4.30;;;;;;;3.73;56.64;95563.81;5073895;28;20197;-67
2022/01/29 10:34:17;;;;;;;5.10;4.70;;;;;;;3.67;56.66;95562.25;5072592;28;20219;-66
2022/01/29 10:36:43;;;;;;;5.20;4.80;;;;;;;3.68;56.58;95555.72;5074493;28;20221;-66
2022/01/29 10:39:10;;;;;;;5.50;5.10;;;;;;;3.62;57.25;95553.03;5074577;28;20205;-66
2022/01/29 10:41:37;;;;;;;5.47;5.07;;;;;;;3.60;57.54;95559.94;5074912;28;20190;-66
2022/01/29 10:44:13;;;;;;;6.40;5.80;;;;;;;3.64;57.50;95560.94;5074328;28;20192;-67
2022/01/29 10:46:43;;;;;;;6.45;5.90;;;;;;;3.68;57.28;95561.16;5074944;28;20185;-67
2022/01/29 10:49:18;;;;;;;6.18;5.68;;;;;;;3.69;57.43;95560.06;5074223;28;20235;-67
2022/01/29 10:51:58;;;;;;;5.80;5.38;;;;;;;3.61;57.56;95559.63;5074294;28;20492;-66
2022/01/29 10:54:25;;;;;;;6.15;5.65;;;;;;;3.66;57.95;95566.09;5073614;28;20526;-66
2022/01/29 10:56:54;;;;;;;6.78;6.18;;;;;;;3.66;57.68;95579.75;5073723;28;20201;-66
2022/01/29 10:59:21;;;;;;;6.18;5.68;;;;;;;3.51;57.90;95575.31;5073881;28;20224;-66
2022/01/29 11:01:52;;;;;;;6.53;5.93;;;;;;;3.56;58.29;95576.06;5074891;28;20508;-66
2022/01/29 11:04:20;;;;;;;7.65;7.00;;;;;;;3.60;58.57;95568.13;5074479;28;20185;-66
2022/01/29 11:06:48;;;;;;;9.02;8.13;;;;;;;3.63;58.62;95564.75;5074418;28;20189;-66
2022/01/29 11:09:16;;;;;;;9.77;8.98;;;;;;;3.62;58.55;95566.69;5073837;28;20292;-66
2022/01/29 11:11:45;;;;;;;10.07;9.02;;;;;;;3.66;58.51;95560.63;5073781;28;20212;-66
2022/01/29 11:14:13;;;;;;;7.60;6.90;;;;;;;3.70;58.25;95548.84;5077405;28;20200;-66
2022/01/29 11:16:40;;;;;;;7.65;7.07;;;;;;;3.70;57.96;95543.38;5077945;28;20254;-66
2022/01/29 11:19:07;;;;;;;7.82;7.22;;;;;;;3.71;57.76;95550.47;5077077;28;20213;-66
2022/01/29 11:21:36;;;;;;;7.95;7.35;;;;;;;3.73;57.85;95547.44;5076889;28;20211;-66
2022/01/29 11:24:06;;;;;;;7.20;6.70;;;;;;;3.73;57.85;95545.50;5077524;28;20208;-66
2022/01/29 11:26:33;;;;;;;7.53;6.93;;;;;;;3.67;58.07;95541.25;5078178;28;20189;-66
2022/01/29 11:29:24;;;;;;;7.00;6.40;;;;;;;3.70;58.65;95539.84;5077659;28;20181;-66
2022/01/29 11:32:25;;;;;;;6.60;6.05;;;;;;;3.75;57.69;95548.75;5076834;28;20201;-66
2022/01/29 11:35:05;;;;;;;6.72;6.22;;;;;;;3.79;57.92;95547.06;5076792;28;20577;-66
2022/01/29 11:37:57;;;;;;;6.30;5.80;;;;;;;3.84;57.54;95546.16;5076809;28;20201;-66
2022/01/29 11:40:26;;;;;;;7.00;6.40;;;;;;;3.88;57.05;95544.44;5077586;28;20181;-66
2022/01/29 11:43:23;;;;;;;8.10;7.30;;;;;;;3.94;57.64;95543.25;5077664;28;20189;-66
2022/01/29 11:45:52;;;;;;;8.38;7.68;;;;;;;3.93;57.08;95540.84;5077076;28;20181;-66
2022/01/29 11:48:51;;;;;;;6.95;6.35;;;;;;;3.84;57.75;95548.88;5076201;28;20257;-66
2022/01/29 11:51:39;;;;;;;6.63;6.13;;;;;;;3.85;57.24;95553.25;5076251;28;20243;-66
2022/01/29 11:54:08;;;;;;;7.43;6.72;;;;;;;3.84;57.29;95548.88;5077274;28;20196;-67
2022/01/29 11:56:37;;;;;;;7.18;6.63;;;;;;;3.82;56.62;95549.19;5076495;28;20209;-66
2022/01/29 11:59:27;;;;;;;7.40;6.70;;;;;;;3.77;56.98;95545.72;5075910;28;20280;-67